Date,TemperatureHighF,TemperatureAvgF,TemperatureLowF,DewpointHighF,DewpointAvgF,DewpointLowF,HumidityHigh,HumidityAvg,HumidityLow,PressureMaxIn,PressureMinIn,WindSpeedMaxMPH,WindSpeedAvgMPH,GustSpeedMaxMPH,PrecipitationSumIn
2013-2-1,58,52,45,40,34,11,69,50,37,30.03,29.87,22,5,22,0.00
2013-2-2,63,54,46,50,45,39,82,72,55,29.88,29.74,17,3,17,0.00
2013-2-3,64,59,56,53,52,34,85,77,34,29.90,29.76,30,14,30,0.00
2013-2-4,66,60,56,55,52,33,87,76,30,29.96,29.89,14,2,14,0.00
2013-2-5,64,57,52,52,48,32,85,72,54,29.96,29.82,16,4,16,0.00
2013-2-6,62,54,48,50,45,26,82,73,62,29.82,29.65,12,3,12,0.00
2013-2-7,60,55,51,50,46,30,85,73,64,29.67,29.48,32,10,32,0.96
2013-2-8,56,51,47,45,41,10,76,67,57,29.71,29.50,14,4,14,0.78
2013-2-9,59,51,42,43,39,21,80,65,48,29.84,29.71,21,4,21,0.78
2013-2-10,58,51,46,40,37,20,70,58,24,29.85,29.75,13,4,13,0.39
2013-2-11,56,49,44,37,34,-20,73,57,21,30.00,29.73,21,5,21,0.78
2013-2-12,59,51,41,46,39,15,72,64,29,30.06,29.96,17,4,17,0.78
2013-2-13,56,52,46,48,44,25,88,77,62,29.96,29.86,23,4,23,1.40
2013-2-14,53,48,46,47,43,25,86,83,42,29.88,29.63,15,3,15,0.33
2013-2-15,53,48,45,44,42,27,85,80,39,29.99,29.63,16,3,19,0.19
2013-2-16,59,50,44,46,42,24,85,74,34,30.03,29.96,13,3,13,0.05
2013-2-17,47,45,42,42,40,36,86,81,73,30.02,29.91,29,4,29,0.34
2013-2-18,56,47,40,40,37,20,83,70,30,30.05,30.00,12,2,12,0.01
2013-2-19,57,49,44,49,42,28,88,77,67,30.00,29.74,17,3,17,0.29
2013-2-20,60,51,44,40,37,33,75,58,37,30.02,29.77,14,4,14,0.00
2013-2-21,54,51,47,47,42,38,84,72,68,30.01,29.68,11,3,12,0.02
2013-2-22,56,52,49,50,47,28,90,84,41,29.70,29.54,21,4,21,3.94
2013-2-23,65,54,47,51,46,26,89,76,34,30.00,29.70,13,2,13,0.00
2013-2-24,66,58,50,55,49,30,88,73,54,30.07,29.99,17,4,17,0.00
2013-2-25,69,60,54,53,50,31,85,70,50,30.06,29.95,20,6,20,0.00
2013-2-26,66,59,52,54,46,21,84,64,37,30.01,29.94,20,5,20,0.00
2013-2-27,60,54,50,43,39,22,70,58,30,30.03,29.91,20,6,20,0.00
2013-2-28,53,49,45,40,38,19,74,67,30,30.18,30.02,18,6,18,0.00